Time;durP1;ratioP1;P1;durP2;ratioP2;P2;SDS_P1;SDS_P2;PMS_P1;PMS_P2;Temp;Humidity;BMP_temperature;BMP_pressure;BME280_temperature;BME280_humidity;BME280_pressure;Samples;Min_cycle;Max_cycle;Signal;HPM_P1;HPM_P2
2022/12/20 00:01:58;;;;;;;2.70;1.55;;;;;;;;;;5114142;28;20446;-77
2022/12/20 00:04:23;;;;;;;2.25;1.30;;;;;;;;;;5096596;28;20059;-76
2022/12/20 00:06:48;;;;;;;3.33;1.63;;;;;;;;;;5114850;28;20024;-76
2022/12/20 00:09:14;;;;;;;1.63;1.50;;;;;;;;;;5113130;28;20043;-76
2022/12/20 00:11:40;;;;;;;1.77;1.30;;;;;;;;;;5113592;28;20055;-76
2022/12/20 00:14:07;;;;;;;4.25;1.50;;;;;;;;;;5113451;28;20070;-76
2022/12/20 00:16:33;;;;;;;2.97;1.27;;;;;;;;;;5114065;28;20481;-77
2022/12/20 00:19:00;;;;;;;1.92;1.40;;;;;;;;;;5113634;28;20051;-76
2022/12/20 00:21:26;;;;;;;3.85;1.40;;;;;;;;;;5113340;28;20020;-77
2022/12/20 00:23:52;;;;;;;4.68;1.40;;;;;;;;;;5113656;28;20043;-77
2022/12/20 00:26:20;;;;;;;2.17;1.50;;;;;;;;;;5113320;28;20113;-77
2022/12/20 00:28:45;;;;;;;1.40;1.30;;;;;;;;;;5113514;28;20102;-75
2022/12/20 00:31:13;;;;;;;4.43;1.67;;;;;;;;;;5113396;28;20119;-76
2022/12/20 00:33:39;;;;;;;1.30;1.20;;;;;;;;;;5096789;28;20073;-75
2022/12/20 00:36:05;;;;;;;3.63;1.40;;;;;;;;;;5113293;28;20420;-76
2022/12/20 00:38:32;;;;;;;1.98;1.40;;;;;;;;;;5113028;28;20048;-76
2022/12/20 00:41:04;;;;;;;2.13;1.45;;;;;;;;;;5113251;28;20529;-74
2022/12/20 00:43:31;;;;;;;1.60;1.30;;;;;;;;;;5114347;28;20492;-76
2022/12/20 00:45:56;;;;;;;3.50;1.42;;;;;;;;;;5113287;28;20119;-76
2022/12/20 00:48:22;;;;;;;1.30;1.20;;;;;;;;;;5095859;28;20055;-77
2022/12/20 00:50:47;;;;;;;3.67;1.40;;;;;;;;;;5114284;28;20038;-77
2022/12/20 00:53:13;;;;;;;1.27;1.17;;;;;;;;;;5095744;28;20032;-75
2022/12/20 00:55:43;;;;;;;1.52;1.20;;;;;;;;;;5096008;28;20427;-75
2022/12/20 00:58:08;;;;;;;3.03;1.50;;;;;;;;;;5113997;28;20110;-77
2022/12/20 01:00:34;;;;;;;2.83;1.58;;;;;;;;;;5114305;28;20110;-77
2022/12/20 01:02:59;;;;;;;1.63;1.33;;;;;;;;;;5114430;28;20027;-75
2022/12/20 01:05:25;;;;;;;1.58;1.20;;;;;;;;;;5114372;28;20020;-75
2022/12/20 01:07:50;;;;;;;1.30;1.20;;;;;;;;;;5114164;28;20043;-77
2022/12/20 01:10:17;;;;;;;1.40;1.30;;;;;;;;;;5112534;28;20047;-75
2022/12/20 01:12:42;;;;;;;1.52;1.33;;;;;;;;;;5112602;28;20047;-75
2022/12/20 01:15:08;;;;;;;1.67;1.20;;;;;;;;;;5113750;27;20466;-75
2022/12/20 01:17:33;;;;;;;2.30;1.27;;;;;;;;;;5113844;28;20102;-75
2022/12/20 01:19:59;;;;;;;1.67;1.40;;;;;;;;;;5095165;28;20028;-75
2022/12/20 01:22:24;;;;;;;1.40;1.30;;;;;;;;;;5112509;28;20028;-75
2022/12/20 01:24:49;;;;;;;1.80;1.40;;;;;;;;;;5113613;28;20030;-75
2022/12/20 01:27:15;;;;;;;3.25;1.40;;;;;;;;;;5112246;28;20120;-75
2022/12/20 01:29:40;;;;;;;1.50;1.30;;;;;;;;;;5113771;28;20023;-75
2022/12/20 01:32:05;;;;;;;1.42;1.30;;;;;;;;;;5113706;28;20034;-75
2022/12/20 01:34:31;;;;;;;1.67;1.55;;;;;;;;;;5113343;28;20590;-75
2022/12/20 01:36:56;;;;;;;1.48;1.20;;;;;;;;;;5113697;28;20039;-75
2022/12/20 01:39:21;;;;;;;2.05;1.35;;;;;;;;;;5113204;28;20048;-75
2022/12/20 01:41:48;;;;;;;1.45;1.33;;;;;;;;;;5113895;28;20177;-75
2022/12/20 01:44:16;;;;;;;1.83;1.35;;;;;;;;;;5112100;28;20027;-75
2022/12/20 01:46:43;;;;;;;1.83;1.20;;;;;;;;;;5113605;28;20068;-75
2022/12/20 01:49:13;;;;;;;1.52;1.30;;;;;;;;;;5095236;28;20031;-75
2022/12/20 01:51:43;;;;;;;1.27;1.17;;;;;;;;;;5112013;28;20034;-75
2022/12/20 01:54:13;;;;;;;1.48;1.27;;;;;;;;;;5112012;28;20135;-76
2022/12/20 01:56:39;;;;;;;2.38;1.30;;;;;;;;;;5111954;28;20470;-75
2022/12/20 01:59:05;;;;;;;1.45;1.30;;;;;;;;;;5111968;28;20525;-75
2022/12/20 02:01:30;;;;;;;2.42;1.30;;;;;;;;;;5113321;28;20128;-75
2022/12/20 02:03:56;;;;;;;1.67;1.30;;;;;;;;;;5112438;28;20024;-77
2022/12/20 02:06:24;;;;;;;2.28;1.40;;;;;;;;;;5113355;28;20024;-75
2022/12/20 02:08:50;;;;;;;3.05;1.45;;;;;;;;;;5094840;28;20466;-75
2022/12/20 02:11:48;;;;;;;1.48;1.35;;;;;;;;;;5094758;28;20035;-75
2022/12/20 02:14:24;;;;;;;2.60;1.10;;;;;;;;;;5111620;28;20122;-77
2022/12/20 02:17:01;;;;;;;1.38;1.27;;;;;;;;;;5113017;28;20019;-76
2022/12/20 02:19:45;;;;;;;1.77;1.42;;;;;;;;;;5111681;28;20073;-76
2022/12/20 02:22:10;;;;;;;;;;;;;;;;;;5113308;28;20443;-74
2022/12/20 02:25:05;;;;;;;1.20;1.10;;;;;;;;;;5113386;28;20016;-75
2022/12/20 02:27:42;;;;;;;3.22;1.38;;;;;;;;;;5112188;28;20024;-76
2022/12/20 02:30:14;;;;;;;1.75;1.42;;;;;;;;;;5113215;28;20084;-75
2022/12/20 02:32:51;;;;;;;1.38;1.25;;;;;;;;;;5114494;28;20027;-77
2022/12/20 02:35:23;;;;;;;1.70;1.40;;;;;;;;;;5115158;28;20472;-76
2022/12/20 02:37:55;;;;;;;1.30;1.20;;;;;;;;;;5115300;28;20130;-75
2022/12/20 02:40:24;;;;;;;1.27;1.08;;;;;;;;;;5116271;28;20116;-76
2022/12/20 02:42:53;;;;;;;2.15;1.40;;;;;;;;;;5098050;28;20470;-76
2022/12/20 02:45:21;;;;;;;1.83;1.30;;;;;;;;;;5115424;28;20026;-76
2022/12/20 02:47:51;;;;;;;2.65;1.20;;;;;;;;;;5115321;28;20027;-76
2022/12/20 02:50:21;;;;;;;2.42;1.30;;;;;;;;;;5115049;28;20028;-76
2022/12/20 02:52:47;;;;;;;2.65;1.42;;;;;;;;;;5114939;28;20039;-76
2022/12/20 02:55:12;;;;;;;1.35;1.25;;;;;;;;;;5115112;28;20023;-76
2022/12/20 02:57:46;;;;;;;1.85;1.30;;;;;;;;;;5116215;28;20028;-76
2022/12/20 03:00:15;;;;;;;1.70;1.38;;;;;;;;;;5098274;28;20092;-77
2022/12/20 03:05:26;;;;;;;2.63;1.52;;;;;;;;;;5116484;28;20389;-77
2022/12/20 03:07:53;;;;;;;1.13;1.13;;;;;;;;;;5114990;28;20102;-77
2022/12/20 03:10:19;;;;;;;1.40;1.25;;;;;;;;;;5114933;28;20024;-77
2022/12/20 03:12:45;;;;;;;1.52;1.20;;;;;;;;;;5115191;28;20466;-76
2022/12/20 03:15:10;;;;;;;5.32;1.42;;;;;;;;;;5114423;28;20126;-76
2022/12/20 03:17:36;;;;;;;2.47;1.33;;;;;;;;;;5114306;28;20035;-76
2022/12/20 03:20:02;;;;;;;4.80;1.60;;;;;;;;;;5114422;28;20028;-76
2022/12/20 03:22:28;;;;;;;1.30;1.20;;;;;;;;;;5114709;28;20051;-76
2022/12/20 03:24:53;;;;;;;1.67;1.20;;;;;;;;;;5115996;28;20356;-76
2022/12/20 03:27:18;;;;;;;1.73;1.50;;;;;;;;;;5114285;28;20031;-76
2022/12/20 03:29:44;;;;;;;1.23;1.13;;;;;;;;;;5114252;28;20035;-76
2022/12/20 03:32:10;;;;;;;1.40;1.30;;;;;;;;;;5116117;28;20103;-77
2022/12/20 03:34:36;;;;;;;2.10;1.30;;;;;;;;;;5115888;28;20024;-76
2022/12/20 03:37:01;;;;;;;1.15;1.05;;;;;;;;;;5114785;28;20034;-76
2022/12/20 03:39:26;;;;;;;1.52;1.33;;;;;;;;;;5115261;28;20130;-77
2022/12/20 03:41:52;;;;;;;1.65;1.30;;;;;;;;;;5115565;28;20396;-76
2022/12/20 03:44:17;;;;;;;3.30;1.52;;;;;;;;;;5114105;28;20028;-76
2022/12/20 03:46:42;;;;;;;1.30;1.20;;;;;;;;;;5115570;27;20119;-76
2022/12/20 03:49:08;;;;;;;6.15;1.75;;;;;;;;;;5113891;28;20028;-77
2022/12/20 03:51:33;;;;;;;2.80;1.40;;;;;;;;;;5115079;28;20023;-75
2022/12/20 03:53:58;;;;;;;2.38;1.30;;;;;;;;;;5115204;28;20020;-75
2022/12/20 03:56:24;;;;;;;10.45;1.30;;;;;;;;;;5114015;28;20385;-75
2022/12/20 03:58:49;;;;;;;2.03;1.25;;;;;;;;;;5114930;28;20031;-75
2022/12/20 04:01:22;;;;;;;1.77;1.35;;;;;;;;;;5114756;28;20118;-75
2022/12/20 04:03:48;;;;;;;2.05;1.30;;;;;;;;;;5115086;28;20088;-75
2022/12/20 04:06:14;;;;;;;1.85;1.20;;;;;;;;;;5113557;28;20039;-76
2022/12/20 04:08:39;;;;;;;2.00;1.40;;;;;;;;;;5115017;28;20058;-76
2022/12/20 04:11:17;;;;;;;2.08;1.23;;;;;;;;;;5113595;28;20031;-76
2022/12/20 04:13:47;;;;;;;1.92;1.30;;;;;;;;;;5113296;28;20072;-77
2022/12/20 04:16:15;;;;;;;2.60;1.50;;;;;;;;;;5113439;28;20030;-76
2022/12/20 04:18:40;;;;;;;1.30;1.20;;;;;;;;;;5115154;28;20032;-76
2022/12/20 04:21:06;;;;;;;2.00;1.25;;;;;;;;;;5079551;28;20035;-77
2022/12/20 04:23:36;;;;;;;2.40;1.40;;;;;;;;;;5113466;28;20058;-74
2022/12/20 04:26:03;;;;;;;1.65;1.00;;;;;;;;;;5114605;28;20024;-74
2022/12/20 04:28:29;;;;;;;1.45;1.20;;;;;;;;;;5113237;28;20483;-76
2022/12/20 04:30:54;;;;;;;6.95;1.27;;;;;;;;;;5113537;28;20098;-77
2022/12/20 04:33:20;;;;;;;1.55;1.23;;;;;;;;;;5114316;28;20031;-76
2022/12/20 04:35:46;;;;;;;1.85;1.20;;;;;;;;;;5113127;28;20398;-76
2022/12/20 04:38:11;;;;;;;4.47;1.58;;;;;;;;;;5114235;28;20024;-76
2022/12/20 04:40:36;;;;;;;1.50;1.25;;;;;;;;;;5113236;28;20423;-76
2022/12/20 04:43:02;;;;;;;3.95;1.33;;;;;;;;;;5113075;28;20024;-76
2022/12/20 04:45:27;;;;;;;1.73;1.30;;;;;;;;;;5114428;28;20042;-76
2022/12/20 04:47:53;;;;;;;1.40;1.10;;;;;;;;;;5112788;28;20045;-76
2022/12/20 04:50:18;;;;;;;2.78;1.30;;;;;;;;;;5113047;28;20023;-76
2022/12/20 04:55:28;;;;;;;2.10;1.20;;;;;;;;;;5113961;28;20062;-76
2022/12/20 04:57:53;;;;;;;2.05;1.20;;;;;;;;;;5095822;28;20031;-76
2022/12/20 05:00:19;;;;;;;2.22;1.38;;;;;;;;;;5113844;28;20031;-76
2022/12/20 05:02:45;;;;;;;2.03;1.27;;;;;;;;;;5096812;28;20039;-76
2022/12/20 05:05:10;;;;;;;1.67;1.40;;;;;;;;;;5112977;28;20019;-76
2022/12/20 05:07:36;;;;;;;1.10;1.00;;;;;;;;;;5113214;28;20402;-76
2022/12/20 05:10:02;;;;;;;1.63;1.23;;;;;;;;;;5114333;28;20035;-76
2022/12/20 05:12:27;;;;;;;1.30;1.20;;;;;;;;;;5113130;28;20028;-76
2022/12/20 05:14:52;;;;;;;3.58;1.58;;;;;;;;;;5113946;28;20031;-76
2022/12/20 05:17:18;;;;;;;4.43;1.73;;;;;;;;;;5095632;28;20037;-76
2022/12/20 05:19:43;;;;;;;4.65;1.70;;;;;;;;;;5113064;28;20124;-76
2022/12/20 05:27:37;;;;;;;3.65;1.58;;;;;;;;;;5113423;28;20055;-77
2022/12/20 05:30:03;;;;;;;5.38;1.23;;;;;;;;;;5095683;28;20489;-76
2022/12/20 05:32:28;;;;;;;1.92;1.42;;;;;;;;;;5112616;28;20176;-76
2022/12/20 05:34:54;;;;;;;1.98;1.40;;;;;;;;;;5113758;28;20035;-76
2022/12/20 05:37:19;;;;;;;6.05;2.00;;;;;;;;;;5112501;28;20030;-76
2022/12/20 05:39:44;;;;;;;4.97;2.10;;;;;;;;;;5112895;28;20440;-76
2022/12/20 05:42:11;;;;;;;5.13;2.10;;;;;;;;;;5113055;28;20039;-76
2022/12/20 05:44:36;;;;;;;8.18;2.30;;;;;;;;;;5113063;28;20031;-76
2022/12/20 05:47:02;;;;;;;9.50;1.90;;;;;;;;;;5111666;28;20019;-75
2022/12/20 05:49:27;;;;;;;4.03;1.95;;;;;;;;;;5112960;28;20035;-76
2022/12/20 05:51:52;;;;;;;6.13;1.73;;;;;;;;;;5112819;28;20544;-76
2022/12/20 05:54:18;;;;;;;8.95;2.30;;;;;;;;;;5112813;28;20028;-75
2022/12/20 05:56:43;;;;;;;4.78;1.88;;;;;;;;;;5111680;28;20027;-75
2022/12/20 05:59:08;;;;;;;5.57;2.00;;;;;;;;;;5111606;28;20102;-77
2022/12/20 06:01:34;;;;;;;6.72;2.50;;;;;;;;;;5112729;28;20044;-78
2022/12/20 06:03:59;;;;;;;16.55;2.88;;;;;;;;;;5112907;28;20020;-77
2022/12/20 06:06:24;;;;;;;15.07;3.30;;;;;;;;;;5113999;28;20438;-77
2022/12/20 06:08:50;;;;;;;9.80;2.90;;;;;;;;;;5115701;28;20023;-77
2022/12/20 06:11:15;;;;;;;12.68;2.78;;;;;;;;;;5116702;28;20050;-77
2022/12/20 06:13:41;;;;;;;8.57;2.60;;;;;;;;;;5115461;28;20153;-77
2022/12/20 06:16:06;;;;;;;6.63;2.80;;;;;;;;;;5115407;28;20023;-77
2022/12/20 06:18:32;;;;;;;9.55;2.95;;;;;;;;;;5116671;28;20048;-78
2022/12/20 06:20:57;;;;;;;8.48;2.97;;;;;;;;;;5117490;28;20474;-76
2022/12/20 06:23:22;;;;;;;5.70;2.53;;;;;;;;;;5117181;28;20035;-76
2022/12/20 06:25:48;;;;;;;7.90;2.42;;;;;;;;;;5116136;28;20110;-77
2022/12/20 06:28:15;;;;;;;6.90;2.45;;;;;;;;;;5117666;28;20035;-76
2022/12/20 06:30:40;;;;;;;5.18;2.10;;;;;;;;;;5116161;28;20470;-76
2022/12/20 06:33:06;;;;;;;6.25;2.28;;;;;;;;;;5117868;28;20024;-76
2022/12/20 06:35:31;;;;;;;5.88;2.10;;;;;;;;;;5117423;28;20036;-76
2022/12/20 06:37:56;;;;;;;4.68;1.92;;;;;;;;;;5115560;28;20126;-76
2022/12/20 06:40:22;;;;;;;4.05;1.95;;;;;;;;;;5115482;28;20050;-77
2022/12/20 06:42:49;;;;;;;4.70;2.17;;;;;;;;;;5115762;28;20030;-76
2022/12/20 06:45:14;;;;;;;8.13;2.05;;;;;;;;;;5116793;28;20478;-77
2022/12/20 06:47:40;;;;;;;7.40;2.05;;;;;;;;;;5098562;28;20062;-76
2022/12/20 06:50:06;;;;;;;4.22;2.28;;;;;;;;;;5098508;28;20390;-76
2022/12/20 06:52:32;;;;;;;4.93;1.98;;;;;;;;;;5115365;28;20028;-76
2022/12/20 06:54:57;;;;;;;6.20;2.25;;;;;;;;;;5115128;28;20022;-76
2022/12/20 06:57:22;;;;;;;6.38;2.30;;;;;;;;;;5115219;28;20032;-76
2022/12/20 06:59:48;;;;;;;3.83;1.80;;;;;;;;;;5115297;28;20050;-77
2022/12/20 07:02:14;;;;;;;4.07;1.77;;;;;;;;;;5116900;28;20032;-76
2022/12/20 07:04:39;;;;;;;3.13;1.80;;;;;;;;;;5115180;28;20042;-76
2022/12/20 07:07:05;;;;;;;3.92;1.85;;;;;;;;;;5115124;28;20024;-76
2022/12/20 07:09:30;;;;;;;3.92;1.67;;;;;;;;;;5116321;28;20450;-77
2022/12/20 07:11:56;;;;;;;3.22;1.85;;;;;;;;;;5115013;28;20028;-76
2022/12/20 07:14:21;;;;;;;2.80;1.70;;;;;;;;;;5114928;28;20063;-76
2022/12/20 07:16:46;;;;;;;3.70;1.70;;;;;;;;;;5115166;28;20077;-76
2022/12/20 07:19:13;;;;;;;4.38;1.70;;;;;;;;;;5114704;28;20035;-76
2022/12/20 07:21:39;;;;;;;2.17;1.48;;;;;;;;;;5114902;28;20020;-76
2022/12/20 07:24:05;;;;;;;1.98;1.45;;;;;;;;;;5116271;28;20023;-76
2022/12/20 07:26:30;;;;;;;3.35;1.80;;;;;;;;;;5114981;28;20027;-76
2022/12/20 07:28:56;;;;;;;2.85;1.60;;;;;;;;;;5114645;28;20034;-76
2022/12/20 07:31:21;;;;;;;4.40;1.60;;;;;;;;;;5115894;28;20118;-76
2022/12/20 07:33:47;;;;;;;2.83;1.63;;;;;;;;;;5114818;28;20031;-76
2022/12/20 07:36:14;;;;;;;2.15;1.40;;;;;;;;;;5116046;28;20474;-76
2022/12/20 07:38:40;;;;;;;3.35;1.65;;;;;;;;;;5097527;28;20545;-76
2022/12/20 07:41:11;;;;;;;4.22;1.85;;;;;;;;;;5114313;28;20153;-76
2022/12/20 07:43:36;;;;;;;2.72;1.48;;;;;;;;;;5097254;28;20057;-76
2022/12/20 07:46:03;;;;;;;2.85;1.60;;;;;;;;;;5114291;28;20112;-76
2022/12/20 07:48:28;;;;;;;2.33;1.40;;;;;;;;;;5114234;28;20473;-76
2022/12/20 07:51:05;;;;;;;2.15;1.50;;;;;;;;;;5115422;28;20054;-76
2022/12/20 07:53:32;;;;;;;2.92;1.50;;;;;;;;;;5114401;28;20023;-76
2022/12/20 07:55:58;;;;;;;4.25;1.33;;;;;;;;;;5114281;28;20031;-76
2022/12/20 07:58:24;;;;;;;1.55;1.05;;;;;;;;;;5096991;28;20115;-76
2022/12/20 08:00:50;;;;;;;2.92;1.70;;;;;;;;;;5115291;28;20051;-76
2022/12/20 08:03:21;;;;;;;1.83;1.30;;;;;;;;;;5097231;28;20374;-76
2022/12/20 08:05:50;;;;;;;1.90;1.30;;;;;;;;;;5114198;28;20132;-76
2022/12/20 08:08:15;;;;;;;2.97;1.30;;;;;;;;;;5114141;28;20073;-76
2022/12/20 08:10:41;;;;;;;2.30;1.40;;;;;;;;;;5113667;28;20032;-76
2022/12/20 08:13:07;;;;;;;2.33;1.48;;;;;;;;;;5115167;28;20027;-76
2022/12/20 08:15:33;;;;;;;2.10;1.30;;;;;;;;;;5113731;28;20532;-76
2022/12/20 08:17:59;;;;;;;2.50;1.40;;;;;;;;;;5114011;28;20024;-76
2022/12/20 08:20:24;;;;;;;1.75;1.30;;;;;;;;;;5115133;28;20027;-76
2022/12/20 08:22:49;;;;;;;3.17;1.23;;;;;;;;;;5096866;28;20035;-76
2022/12/20 08:25:15;;;;;;;1.58;1.20;;;;;;;;;;5113645;28;20102;-77
2022/12/20 08:27:40;;;;;;;1.83;1.20;;;;;;;;;;5113553;28;20028;-76
2022/12/20 08:30:07;;;;;;;2.05;1.23;;;;;;;;;;5113243;28;20454;-76
2022/12/20 08:32:33;;;;;;;2.63;1.33;;;;;;;;;;5115013;28;20126;-76
2022/12/20 08:34:58;;;;;;;1.55;1.30;;;;;;;;;;5096405;28;20107;-76
2022/12/20 08:37:24;;;;;;;2.92;1.15;;;;;;;;;;5113425;28;20027;-76
2022/12/20 08:39:49;;;;;;;1.40;1.23;;;;;;;;;;5096165;28;20043;-76
2022/12/20 08:42:15;;;;;;;1.00;1.00;;;;;;;;;;5113518;28;20046;-76
2022/12/20 08:44:40;;;;;;;0.88;0.88;;;;;;;;;;5114052;28;20030;-76
2022/12/20 08:47:05;;;;;;;1.13;1.08;;;;;;;;;;5114683;28;20104;-76
2022/12/20 08:49:31;;;;;;;1.30;1.17;;;;;;;;;;5113258;28;20115;-76
2022/12/20 08:51:56;;;;;;;1.83;1.20;;;;;;;;;;5114498;28;20027;-77
2022/12/20 08:54:22;;;;;;;1.40;1.30;;;;;;;;;;5114264;28;20031;-77
2022/12/20 08:56:47;;;;;;;2.35;1.33;;;;;;;;;;5113230;28;20038;-77
2022/12/20 08:59:13;;;;;;;1.65;1.40;;;;;;;;;;5114728;27;20027;-76
2022/12/20 09:01:38;;;;;;;1.73;1.30;;;;;;;;;;5096109;28;20497;-76
2022/12/20 09:04:03;;;;;;;3.17;1.40;;;;;;;;;;5113185;28;20024;-75
2022/12/20 09:06:29;;;;;;;3.38;1.73;;;;;;;;;;5113406;28;20035;-75
2022/12/20 09:08:54;;;;;;;5.05;1.77;;;;;;;;;;5079028;28;20038;-76
2022/12/20 09:11:23;;;;;;;6.15;1.90;;;;;;;;;;5095821;28;20039;-76
2022/12/20 09:13:50;;;;;;;3.00;1.50;;;;;;;;;;5114023;28;20047;-76
2022/12/20 09:16:18;;;;;;;8.20;1.83;;;;;;;;;;5112878;28;20015;-76
2022/12/20 09:18:48;;;;;;;3.20;1.65;;;;;;;;;;5112719;28;20038;-76
2022/12/20 09:21:17;;;;;;;2.95;1.60;;;;;;;;;;5095737;28;20023;-76
2022/12/20 09:23:43;;;;;;;5.80;1.77;;;;;;;;;;5112792;28;20011;-76
2022/12/20 09:26:14;;;;;;;7.32;2.25;;;;;;;;;;5095886;28;20024;-75
2022/12/20 09:28:40;;;;;;;8.02;1.60;;;;;;;;;;5112727;28;20054;-76
2022/12/20 09:31:09;;;;;;;3.65;1.33;;;;;;;;;;5112551;28;20424;-76
2022/12/20 09:33:35;;;;;;;1.90;1.48;;;;;;;;;;5112736;28;20024;-75
2022/12/20 09:36:01;;;;;;;4.22;1.25;;;;;;;;;;5112926;28;20028;-75
2022/12/20 09:38:27;;;;;;;3.67;1.42;;;;;;;;;;5113665;28;20024;-76
2022/12/20 09:40:56;;;;;;;3.20;1.63;;;;;;;;;;5095768;28;20028;-76
2022/12/20 09:43:22;;;;;;;2.55;1.35;;;;;;;;;;5118542;28;20033;-76
2022/12/20 09:45:51;;;;;;;4.18;1.30;;;;;;;;;;5117329;28;20027;-76
2022/12/20 09:48:19;;;;;;;5.35;2.10;;;;;;;;;;5117301;28;20028;-77
2022/12/20 09:50:48;;;;;;;2.70;1.40;;;;;;;;;;5112764;28;20020;-77
2022/12/20 09:53:40;;;;;;;4.32;1.52;;;;;;;;;;5117226;28;20035;-77
2022/12/20 09:56:27;;;;;;;5.85;1.50;;;;;;;;;;5054506;28;20044;-78
2022/12/20 09:59:02;;;;;;;3.33;1.40;;;;;;;;;;5078651;28;20478;-77
2022/12/20 10:01:30;;;;;;;2.22;1.30;;;;;;;;;;5095490;28;20485;-77
2022/12/20 10:03:57;;;;;;;3.42;1.10;;;;;;;;;;5078402;28;20429;-78
2022/12/20 10:06:28;;;;;;;2.05;1.30;;;;;;;;;;5095165;28;20060;-77
2022/12/20 10:08:57;;;;;;;1.52;1.15;;;;;;;;;;5096800;28;20096;-78
2022/12/20 10:12:01;;;;;;;4.53;1.20;;;;;;;;;;5095404;28;20035;-77
2022/12/20 10:14:49;;;;;;;7.22;2.33;;;;;;;;;;5094963;28;20055;-77
2022/12/20 10:17:51;;;;;;;2.30;1.20;;;;;;;;;;5096466;28;20031;-77
2022/12/20 10:20:35;;;;;;;3.47;1.38;;;;;;;;;;5095384;28;20020;-77
2022/12/20 10:23:22;;;;;;;3.65;1.35;;;;;;;;;;5096421;28;20478;-76
2022/12/20 10:25:50;;;;;;;2.85;1.30;;;;;;;;;;5094542;28;20024;-77
2022/12/20 10:28:16;;;;;;;2.50;1.30;;;;;;;;;;5112389;28;20032;-76
2022/12/20 10:30:42;;;;;;;0.95;0.95;;;;;;;;;;5078108;28;20491;-76
2022/12/20 10:33:17;;;;;;;13.40;1.38;;;;;;;;;;5094963;28;20028;-75
2022/12/20 10:35:44;;;;;;;4.22;1.20;;;;;;;;;;5094427;28;20042;-76
2022/12/20 10:38:11;;;;;;;4.80;1.42;;;;;;;;;;5094994;28;20024;-76
2022/12/20 10:40:59;;;;;;;3.67;1.30;;;;;;;;;;5094745;28;20048;-77
2022/12/20 10:43:25;;;;;;;1.42;1.20;;;;;;;;;;5077728;28;20031;-77
2022/12/20 10:45:57;;;;;;;4.60;1.75;;;;;;;;;;5094251;28;20107;-76
2022/12/20 10:48:37;;;;;;;4.30;1.52;;;;;;;;;;5094943;28;20028;-76
2022/12/20 10:51:16;;;;;;;3.88;1.30;;;;;;;;;;5094646;28;20020;-76
2022/12/20 10:53:49;;;;;;;3.03;1.30;;;;;;;;;;5094173;28;20502;-76
2022/12/20 10:56:26;;;;;;;2.80;1.20;;;;;;;;;;5096007;28;20031;-76
2022/12/20 10:58:56;;;;;;;4.07;1.30;;;;;;;;;;5078447;28;20032;-77
2022/12/20 11:01:25;;;;;;;1.98;1.20;;;;;;;;;;5094531;28;20028;-77
2022/12/20 11:04:02;;;;;;;3.78;1.23;;;;;;;;;;5094317;28;20478;-77
2022/12/20 11:06:37;;;;;;;3.25;1.27;;;;;;;;;;5095411;28;20436;-77
2022/12/20 11:09:32;;;;;;;2.42;1.42;;;;;;;;;;5094231;28;20390;-77
2022/12/20 11:12:15;;;;;;;1.88;1.20;;;;;;;;;;5093993;28;20028;-76
2022/12/20 11:14:42;;;;;;;1.92;1.30;;;;;;;;;;5093913;28;20020;-76
2022/12/20 11:17:37;;;;;;;1.27;1.08;;;;;;;;;;5094347;28;20020;-76
2022/12/20 11:20:21;;;;;;;1.58;1.20;;;;;;;;;;5077229;28;20440;-76
2022/12/20 11:23:01;;;;;;;1.77;1.10;;;;;;;;;;5093840;28;20031;-76
2022/12/20 11:25:36;;;;;;;2.40;1.20;;;;;;;;;;5093679;28;20024;-76
2022/12/20 11:28:26;;;;;;;2.22;1.30;;;;;;;;;;5095115;28;20020;-76
2022/12/20 11:30:51;;;;;;;1.92;1.25;;;;;;;;;;5093656;28;20051;-76
2022/12/20 11:33:42;;;;;;;4.15;1.27;;;;;;;;;;5093862;28;20106;-76
2022/12/20 11:36:14;;;;;;;1.40;1.20;;;;;;;;;;5093231;28;20024;-76
2022/12/20 11:38:56;;;;;;;2.25;1.45;;;;;;;;;;5094655;28;20054;-76
2022/12/20 11:41:44;;;;;;;1.85;1.13;;;;;;;;;;5110717;28;20027;-76
2022/12/20 11:44:28;;;;;;;3.42;1.50;;;;;;;;;;5076456;28;20107;-76
2022/12/20 11:46:59;;;;;;;;;;;;;;;;;;5093567;28;20052;-76
2022/12/20 11:50:01;;;;;;;4.03;1.77;;;;;;;;;;5094160;28;20358;-76
2022/12/20 11:52:51;;;;;;;1.63;1.20;;;;;;;;;;5110417;28;20049;-76
2022/12/20 11:55:24;;;;;;;2.20;1.40;;;;;;;;;;5096652;28;20080;-77
2022/12/20 11:58:01;;;;;;;2.20;1.33;;;;;;;;;;5113316;28;20019;-77
2022/12/20 12:00:27;;;;;;;3.53;1.48;;;;;;;;;;5114824;28;20031;-76
2022/12/20 12:03:21;;;;;;;2.78;1.40;;;;;;;;;;5113436;28;20063;-76
2022/12/20 12:05:51;;;;;;;2.53;1.33;;;;;;;;;;5112402;28;20027;-76
2022/12/20 12:08:20;;;;;;;2.72;1.33;;;;;;;;;;5096158;28;20107;-77
2022/12/20 12:11:03;;;;;;;4.72;1.30;;;;;;;;;;5113374;28;20462;-76
2022/12/20 12:13:34;;;;;;;3.00;1.17;;;;;;;;;;5113303;28;20065;-77
2022/12/20 12:16:01;;;;;;;4.20;1.27;;;;;;;;;;5113006;28;20417;-76
2022/12/20 12:18:30;;;;;;;2.45;1.15;;;;;;;;;;5113352;28;20023;-76
2022/12/20 12:21:18;;;;;;;2.13;1.50;;;;;;;;;;5096578;28;20466;-77
2022/12/20 12:23:43;;;;;;;3.17;1.60;;;;;;;;;;5114784;28;20055;-77
2022/12/20 12:26:14;;;;;;;2.20;1.38;;;;;;;;;;5114869;28;20532;-77
2022/12/20 12:28:40;;;;;;;4.57;1.50;;;;;;;;;;5096400;28;20019;-76
2022/12/20 12:31:13;;;;;;;5.82;1.80;;;;;;;;;;5113336;28;20114;-76
2022/12/20 12:34:10;;;;;;;8.77;1.33;;;;;;;;;;5113391;28;20043;-76
2022/12/20 12:37:07;;;;;;;9.23;1.40;;;;;;;;;;5090675;27;20073;-75
2022/12/20 12:39:38;;;;;;;2.47;1.30;;;;;;;;;;5113208;28;20044;-74
2022/12/20 12:42:03;;;;;;;10.48;1.40;;;;;;;;;;5113166;28;20401;-75
2022/12/20 12:44:54;;;;;;;4.07;1.50;;;;;;;;;;5114653;28;20027;-75
2022/12/20 12:47:24;;;;;;;1.83;1.23;;;;;;;;;;5111328;28;20030;-75
2022/12/20 12:49:51;;;;;;;6.50;1.70;;;;;;;;;;5095631;28;20438;-75
2022/12/20 12:52:36;;;;;;;2.78;1.48;;;;;;;;;;5112522;28;20050;-75
2022/12/20 12:55:01;;;;;;;;;;;;;;;;;;5113947;28;20030;-76
2022/12/20 12:57:26;;;;;;;2.67;1.40;;;;;;;;;;5113789;28;19916;-75
2022/12/20 12:59:52;;;;;;;2.97;1.20;;;;;;;;;;5112912;28;20034;-75
2022/12/20 13:02:19;;;;;;;4.85;1.40;;;;;;;;;;5114544;28;20458;-75
2022/12/20 13:04:53;;;;;;;6.90;1.30;;;;;;;;;;5114370;28;20392;-75
2022/12/20 13:07:42;;;;;;;5.07;1.38;;;;;;;;;;5114378;28;20072;-75
2022/12/20 13:10:07;;;;;;;5.68;1.33;;;;;;;;;;5095755;28;20061;-76
2022/12/20 13:12:36;;;;;;;2.25;1.27;;;;;;;;;;5112751;28;20063;-76
2022/12/20 13:15:22;;;;;;;2.78;1.38;;;;;;;;;;5113998;28;20024;-77
2022/12/20 13:17:51;;;;;;;3.00;1.38;;;;;;;;;;5102544;28;20131;-74
2022/12/20 13:20:36;;;;;;;3.30;1.55;;;;;;;;;;5112974;28;20076;-76
2022/12/20 13:23:08;;;;;;;1.48;1.23;;;;;;;;;;5095300;28;20455;-76
2022/12/20 13:25:42;;;;;;;4.85;1.60;;;;;;;;;;5114028;28;20054;-77
2022/12/20 13:28:22;;;;;;;8.02;1.48;;;;;;;;;;5114187;28;20103;-76
2022/12/20 13:31:08;;;;;;;5.78;1.23;;;;;;;;;;5112738;28;20551;-74
2022/12/20 13:33:44;;;;;;;2.53;1.65;;;;;;;;;;5112312;28;20438;-77
2022/12/20 13:36:09;;;;;;;3.10;1.40;;;;;;;;;;5112593;28;20031;-77
2022/12/20 13:38:46;;;;;;;7.22;1.70;;;;;;;;;;5112137;28;20044;-76
2022/12/20 13:41:35;;;;;;;5.07;1.35;;;;;;;;;;5113969;28;20038;-77
2022/12/20 13:44:13;;;;;;;12.68;1.30;;;;;;;;;;5095467;28;20026;-77
2022/12/20 13:46:44;;;;;;;6.55;1.40;;;;;;;;;;5112422;28;20027;-76
2022/12/20 13:49:12;;;;;;;8.60;1.30;;;;;;;;;;5113334;28;20019;-76
2022/12/20 13:51:37;;;;;;;5.78;1.70;;;;;;;;;;5112238;28;20466;-76
2022/12/20 13:54:05;;;;;;;6.13;1.30;;;;;;;;;;5112393;28;20167;-76
2022/12/20 13:56:48;;;;;;;5.43;1.45;;;;;;;;;;5112742;28;20035;-76
2022/12/20 13:59:26;;;;;;;4.07;1.33;;;;;;;;;;5112324;28;20030;-77
2022/12/20 14:01:54;;;;;;;3.25;1.30;;;;;;;;;;5112487;28;20070;-76
2022/12/20 14:04:20;;;;;;;3.90;1.20;;;;;;;;;;5112279;28;20031;-77
2022/12/20 14:06:57;;;;;;;2.92;1.38;;;;;;;;;;5112700;28;20028;-77
2022/12/20 14:09:43;;;;;;;2.72;1.20;;;;;;;;;;5096512;28;20374;-76
2022/12/20 14:12:14;;;;;;;4.18;1.30;;;;;;;;;;5114684;28;20027;-76
2022/12/20 14:14:45;;;;;;;1.85;1.30;;;;;;;;;;5113539;28;20088;-76
2022/12/20 14:17:32;;;;;;;1.48;1.20;;;;;;;;;;5114761;28;20046;-75
2022/12/20 14:20:15;;;;;;;1.63;1.38;;;;;;;;;;5112156;28;20058;-76
2022/12/20 14:23:21;;;;;;;4.78;1.35;;;;;;;;;;5113667;28;20019;-75
2022/12/20 14:25:51;;;;;;;4.32;1.05;;;;;;;;;;5079125;28;20097;-76
2022/12/20 14:28:35;;;;;;;1.58;1.17;;;;;;;;;;5114614;28;20147;-76
2022/12/20 14:31:02;;;;;;;3.22;1.08;;;;;;;;;;5115670;28;20424;-76
2022/12/20 14:33:35;;;;;;;5.10;1.25;;;;;;;;;;5082041;28;20035;-75
2022/12/20 14:36:19;;;;;;;2.92;1.48;;;;;;;;;;5116070;28;20028;-76
2022/12/20 14:38:49;;;;;;;3.05;1.23;;;;;;;;;;5115883;28;20043;-75
2022/12/20 14:41:37;;;;;;;2.00;1.10;;;;;;;;;;5115638;28;20028;-75
2022/12/20 14:44:06;;;;;;;8.32;1.50;;;;;;;;;;5115950;28;20043;-75
2022/12/20 14:46:33;;;;;;;1.30;1.20;;;;;;;;;;5116730;28;20513;-75
2022/12/20 14:49:17;;;;;;;7.80;1.30;;;;;;;;;;5115645;28;20020;-76
2022/12/20 14:51:44;;;;;;;2.08;1.30;;;;;;;;;;5115360;28;20016;-75
2022/12/20 14:54:22;;;;;;;2.03;1.10;;;;;;;;;;5098092;28;20031;-75
2022/12/20 14:56:49;;;;;;;1.25;0.93;;;;;;;;;;5116964;28;20224;-75
2022/12/20 14:59:23;;;;;;;2.50;1.13;;;;;;;;;;5115584;28;20024;-75
2022/12/20 15:01:49;;;;;;;6.03;1.10;;;;;;;;;;5115484;28;20036;-76
2022/12/20 15:04:31;;;;;;;5.10;1.25;;;;;;;;;;5115409;28;20122;-76
2022/12/20 15:06:56;;;;;;;2.50;1.20;;;;;;;;;;5115386;28;20023;-76
2022/12/20 15:09:22;;;;;;;7.82;1.75;;;;;;;;;;5115050;28;20470;-75
2022/12/20 15:11:47;;;;;;;5.07;1.40;;;;;;;;;;5097936;28;20378;-75